createdAt,value
2023-04-18T00:00:45.619Z,5.36
2023-04-18T00:03:16.063Z,5.74
2023-04-18T00:05:48.114Z,5.58
2023-04-18T00:08:16.916Z,5.47
2023-04-18T00:10:46.844Z,5.48
2023-04-18T00:13:18.519Z,5.47
2023-04-18T00:15:47.575Z,5.20
2023-04-18T00:18:17.453Z,5.22
2023-04-18T00:20:47.438Z,5.28
2023-04-18T00:23:16.511Z,5.29
2023-04-18T00:25:46.532Z,5.35
2023-04-18T00:28:15.188Z,5.36
2023-04-18T00:30:43.862Z,5.15
2023-04-18T00:33:12.348Z,5.25
2023-04-18T00:35:41.015Z,5.23
2023-04-18T00:38:09.746Z,5.12
2023-04-18T00:40:38.796Z,5.12
2023-04-18T00:43:10.438Z,4.85
2023-04-18T00:45:42.242Z,4.81
2023-04-18T00:48:11.350Z,4.56
2023-04-18T00:50:40.779Z,4.36
2023-04-18T00:53:11.406Z,4.31
2023-04-18T00:55:40.246Z,4.29
2023-04-18T00:58:11.137Z,4.27
2023-04-18T01:00:39.903Z,3.99
2023-04-18T01:03:08.624Z,4.21
2023-04-18T01:05:37.566Z,4.30
2023-04-18T01:08:06.163Z,4.00
2023-04-18T01:10:37.597Z,4.21
2023-04-18T01:13:14.792Z,4.17
2023-04-18T01:15:44.038Z,4.13
2023-04-18T01:18:13.393Z,3.90
2023-04-18T01:20:46.823Z,3.87
2023-04-18T01:23:16.305Z,3.69
2023-04-18T01:25:46.847Z,3.10
2023-04-18T01:28:16.355Z,3.08
2023-04-18T01:30:44.834Z,3.05
2023-04-18T01:33:13.390Z,3.10
2023-04-18T01:35:41.973Z,3.05
2023-04-18T01:38:10.443Z,3.08
2023-04-18T01:40:38.899Z,3.06
2023-04-18T01:43:08.822Z,2.99
2023-04-18T01:45:39.461Z,2.88
2023-04-18T01:48:08.220Z,2.60
2023-04-18T01:50:36.725Z,2.44
2023-04-18T01:53:05.289Z,2.44
2023-04-18T01:55:33.705Z,2.41
2023-04-18T01:58:02.344Z,2.42
2023-04-18T02:00:32.457Z,2.49
2023-04-18T02:03:01.162Z,2.56
2023-04-18T02:05:29.894Z,2.34
2023-04-18T02:07:59.395Z,2.38
2023-04-18T02:10:27.878Z,2.36
2023-04-18T02:12:56.432Z,2.35
2023-04-18T02:15:25.563Z,2.29
2023-04-18T02:17:55.733Z,2.29
2023-04-18T02:20:26.365Z,2.36
2023-04-18T02:22:55.285Z,2.61
2023-04-18T02:25:27.051Z,2.51
2023-04-18T02:27:56.203Z,2.48
2023-04-18T02:30:25.180Z,2.52
2023-04-18T02:32:57.259Z,2.57
2023-04-18T02:35:26.938Z,2.75
2023-04-18T02:37:55.419Z,2.83
2023-04-18T02:40:24.027Z,2.89
2023-04-18T02:42:52.630Z,2.80
2023-04-18T02:45:21.230Z,2.77
2023-04-18T02:47:55.578Z,2.47
2023-04-18T02:50:27.231Z,2.18
2023-04-18T02:52:57.421Z,2.18
2023-04-18T02:55:32.789Z,2.07
2023-04-18T02:58:02.668Z,2.16
2023-04-18T03:00:58.406Z,1.88
2023-04-18T03:03:38.586Z,2.19
2023-04-18T03:06:29.181Z,2.01
2023-04-18T03:08:58.570Z,2.00
2023-04-18T03:11:28.206Z,2.07
2023-04-18T03:13:57.446Z,2.18
2023-04-18T03:16:30.221Z,2.30
2023-04-18T03:18:59.182Z,2.24
2023-04-18T03:21:30.416Z,2.17
2023-04-18T03:23:59.799Z,2.38
2023-04-18T03:26:28.583Z,2.46
2023-04-18T03:28:58.571Z,2.49
2023-04-18T03:31:27.481Z,2.51
2023-04-18T03:33:56.182Z,2.46
2023-04-18T03:36:25.968Z,2.39
2023-04-18T03:38:57.969Z,2.42
2023-04-18T03:41:28.326Z,2.36
2023-04-18T03:43:59.139Z,2.38
2023-04-18T03:46:29.738Z,2.44
2023-04-18T03:48:59.783Z,2.27
2023-04-18T03:51:28.488Z,2.15
2023-04-18T03:54:00.511Z,2.02
2023-04-18T03:56:29.461Z,2.02
2023-04-18T03:58:58.927Z,2.01
2023-04-18T04:01:27.939Z,2.03
2023-04-18T04:03:56.939Z,1.86
2023-04-18T04:06:26.306Z,1.72
2023-04-18T04:08:56.094Z,1.67
2023-04-18T04:11:28.810Z,1.65
2023-04-18T04:13:57.750Z,1.63
2023-04-18T04:16:32.137Z,1.60
2023-04-18T04:19:01.636Z,1.66
2023-04-18T04:21:37.272Z,1.63
2023-04-18T04:24:08.377Z,1.65
2023-04-18T04:26:45.112Z,1.68
2023-04-18T04:29:17.209Z,1.69
2023-04-18T04:31:48.178Z,1.75
2023-04-18T04:34:24.603Z,1.81
2023-04-18T04:36:54.245Z,1.86
2023-04-18T04:39:24.164Z,1.97
2023-04-18T04:42:32.619Z,2.12
2023-04-18T04:45:12.656Z,2.14
2023-04-18T04:47:41.545Z,2.27
2023-04-18T04:50:14.906Z,2.30
2023-04-18T04:52:43.856Z,2.44
2023-04-18T04:55:12.458Z,2.52
2023-04-18T04:57:44.983Z,2.71
2023-04-18T05:00:34.241Z,2.67
2023-04-18T05:03:03.859Z,2.74
2023-04-18T05:05:32.608Z,2.77
2023-04-18T05:08:01.473Z,2.87
2023-04-18T05:10:30.643Z,2.99
2023-04-18T05:13:00.784Z,3.06
2023-04-18T05:15:29.489Z,3.16
2023-04-18T05:17:58.422Z,3.25
2023-04-18T05:20:27.113Z,3.25
2023-04-18T05:22:55.765Z,3.34
2023-04-18T05:25:24.523Z,3.46
2023-04-18T05:27:53.147Z,3.58
2023-04-18T05:30:23.514Z,3.71
2023-04-18T05:32:52.265Z,3.87
2023-04-18T05:35:21.163Z,3.90
2023-04-18T05:37:49.824Z,4.03
2023-04-18T05:40:18.467Z,4.09
2023-04-18T05:42:47.129Z,4.18
2023-04-18T05:45:15.675Z,4.30
2023-04-18T05:47:45.823Z,4.41
2023-04-18T05:50:14.502Z,4.64
2023-04-18T05:52:43.052Z,4.65
2023-04-18T05:55:11.716Z,4.97
2023-04-18T05:57:40.760Z,5.04
2023-04-18T06:00:11.800Z,5.26
2023-04-18T06:02:43.465Z,5.33
2023-04-18T06:05:14.232Z,5.44
2023-04-18T06:07:43.155Z,5.52
2023-04-18T06:10:13.720Z,5.77
2023-04-18T06:12:42.667Z,5.81
2023-04-18T06:15:12.957Z,5.95
2023-04-18T06:17:41.826Z,6.06
2023-04-18T06:20:11.715Z,6.09
2023-04-18T06:22:41.749Z,6.12
2023-04-18T06:25:11.079Z,6.19
2023-04-18T06:27:39.846Z,6.34
2023-04-18T06:30:09.620Z,6.48
2023-04-18T06:32:38.332Z,6.78
2023-04-18T06:35:09.604Z,6.79
2023-04-18T06:37:38.232Z,6.69
2023-04-18T06:40:09.887Z,6.83
2023-04-18T06:42:38.505Z,6.95
2023-04-18T06:45:08.197Z,7.05
2023-04-18T06:47:36.727Z,7.21
2023-04-18T06:50:05.831Z,7.33
2023-04-18T06:52:35.722Z,7.32
2023-04-18T06:55:04.335Z,7.56
2023-04-18T06:57:34.504Z,7.60
2023-04-18T07:00:04.016Z,7.68
2023-04-18T07:02:32.785Z,7.74
2023-04-18T07:05:01.536Z,7.98
2023-04-18T07:07:30.434Z,7.92
2023-04-18T07:09:59.034Z,8.13
2023-04-18T07:12:27.866Z,8.17
2023-04-18T07:14:58.031Z,8.33
2023-04-18T07:17:26.725Z,8.35
2023-04-18T07:19:55.432Z,8.47
2023-04-18T07:22:24.114Z,8.61
2023-04-18T07:24:52.675Z,8.67
2023-04-18T07:27:21.630Z,8.66
2023-04-18T07:29:50.372Z,8.61
2023-04-18T07:32:20.503Z,8.76
2023-04-18T07:34:49.128Z,8.84
2023-04-18T07:37:19.241Z,8.87
2023-04-18T07:39:48.001Z,8.81
2023-04-18T07:42:16.509Z,8.99
2023-04-18T07:44:45.367Z,8.77
2023-04-18T07:47:14.305Z,8.87
2023-04-18T07:49:44.583Z,8.97
2023-04-18T07:52:13.245Z,8.90
2023-04-18T07:54:41.891Z,8.91
2023-04-18T07:57:11.048Z,8.90
2023-04-18T07:59:39.879Z,8.93
2023-04-18T08:02:09.088Z,9.00
2023-04-18T08:04:37.881Z,9.00
2023-04-18T08:07:08.180Z,9.06
2023-04-18T08:09:36.902Z,9.35
2023-04-18T08:12:06.041Z,9.32
2023-04-18T08:14:34.794Z,9.29
2023-04-18T08:17:03.879Z,9.17
2023-04-18T08:19:32.636Z,9.25
2023-04-18T08:22:11.638Z,9.31
2023-04-18T08:24:41.680Z,9.57
2023-04-18T08:27:15.104Z,9.59
2023-04-18T08:29:43.803Z,9.61
2023-04-18T08:32:12.469Z,9.88
2023-04-18T08:34:41.052Z,9.85
2023-04-18T08:37:11.288Z,10.12
2023-04-18T08:39:39.955Z,10.37
2023-04-18T08:42:09.438Z,10.23
2023-04-18T08:44:39.307Z,10.34
2023-04-18T08:47:10.289Z,10.36
2023-04-18T08:49:38.631Z,10.45
2023-04-18T08:52:14.160Z,10.71
2023-04-18T08:54:44.252Z,10.77
2023-04-18T08:57:13.999Z,10.98
2023-04-18T08:59:46.683Z,10.82
2023-04-18T09:02:17.060Z,10.83
2023-04-18T09:04:49.396Z,10.63
2023-04-18T09:07:20.365Z,11.02
2023-04-18T09:09:51.115Z,11.22
2023-04-18T09:12:22.820Z,11.46
2023-04-18T09:14:54.392Z,11.45
2023-04-18T09:17:34.624Z,11.51
2023-04-18T09:20:06.537Z,11.56
2023-04-18T09:22:50.741Z,11.59
2023-04-18T09:25:27.682Z,11.76
2023-04-18T09:27:57.593Z,11.78
2023-04-18T09:30:38.376Z,11.91
2023-04-18T09:33:09.802Z,11.97
2023-04-18T09:35:38.803Z,11.69
2023-04-18T09:38:09.545Z,11.64
2023-04-18T09:40:38.359Z,11.49
2023-04-18T09:43:20.667Z,11.56
2023-04-18T09:45:49.990Z,11.59
2023-04-18T09:48:18.531Z,11.60
2023-04-18T09:50:49.058Z,11.60
2023-04-18T09:53:21.115Z,11.82
2023-04-18T09:55:53.252Z,11.71
2023-04-18T09:58:24.132Z,11.52
2023-04-18T10:00:55.518Z,11.43
2023-04-18T10:03:33.091Z,11.52
2023-04-18T10:06:02.206Z,11.36
2023-04-18T10:08:33.552Z,11.34
2023-04-18T10:11:02.974Z,11.34
2023-04-18T10:13:33.451Z,11.40
2023-04-18T10:16:02.865Z,11.53
2023-04-18T10:18:31.700Z,11.64
2023-04-18T10:21:03.820Z,11.52
2023-04-18T10:23:38.923Z,11.52
2023-04-18T10:26:08.340Z,11.43
2023-04-18T10:28:54.779Z,11.53
2023-04-18T10:31:24.856Z,11.57
2023-04-18T10:36:28.568Z,11.71
2023-04-18T10:39:22.505Z,11.57
2023-04-18T10:41:51.976Z,11.57
2023-04-18T10:44:23.207Z,11.66
2023-04-18T10:47:31.733Z,11.90
2023-04-18T10:50:06.816Z,12.20
2023-04-18T10:52:35.981Z,12.39
2023-04-18T10:55:18.626Z,12.18
2023-04-18T10:57:48.702Z,12.10
2023-04-18T11:00:20.776Z,11.99
2023-04-18T11:02:51.583Z,11.98
2023-04-18T11:05:22.312Z,11.93
2023-04-18T11:07:51.106Z,11.78
2023-04-18T11:10:22.931Z,11.94
2023-04-18T11:12:52.045Z,11.87
2023-04-18T11:15:23.112Z,11.88
2023-04-18T11:18:00.699Z,11.82
2023-04-18T11:20:30.164Z,11.88
2023-04-18T11:22:59.985Z,11.79
2023-04-18T11:25:32.098Z,11.66
2023-04-18T11:28:02.288Z,11.55
2023-04-18T11:30:38.312Z,11.54
2023-04-18T11:33:09.092Z,11.43
2023-04-18T11:35:41.253Z,11.49
2023-04-18T11:38:10.952Z,11.60
2023-04-18T11:40:41.590Z,11.57
2023-04-18T11:43:10.231Z,11.67
2023-04-18T11:45:39.208Z,11.61
2023-04-18T11:48:07.769Z,11.63
2023-04-18T11:50:38.597Z,11.71
2023-04-18T11:53:07.355Z,11.77
2023-04-18T11:55:35.959Z,11.92
2023-04-18T11:58:06.673Z,11.66
2023-04-18T12:00:37.300Z,11.67
2023-04-18T12:03:09.051Z,11.68
2023-04-18T12:05:40.097Z,11.70
2023-04-18T12:08:11.595Z,11.80
2023-04-18T12:10:47.076Z,11.50
2023-04-18T12:13:17.229Z,11.55
2023-04-18T12:15:47.644Z,11.50
2023-04-18T12:18:18.345Z,11.49
2023-04-18T12:20:50.365Z,11.27
2023-04-18T12:23:36.116Z,11.30
2023-04-18T12:26:06.369Z,11.32
2023-04-18T12:28:37.019Z,11.24
2023-04-18T12:31:07.441Z,11.29
2023-04-18T12:33:36.901Z,11.38
2023-04-18T12:36:06.375Z,11.35
2023-04-18T12:38:35.024Z,11.31
2023-04-18T12:41:04.092Z,11.41
2023-04-18T12:43:32.825Z,11.37
2023-04-18T12:46:05.735Z,11.44
2023-04-18T12:48:34.428Z,11.58
2023-04-18T12:51:03.143Z,11.61
2023-04-18T12:53:31.691Z,11.52
2023-04-18T12:56:00.379Z,11.41
2023-04-18T12:58:29.011Z,11.46
2023-04-18T13:00:57.919Z,11.46
2023-04-18T13:03:28.261Z,11.41
2023-04-18T13:05:58.307Z,11.34
2023-04-18T13:08:27.121Z,11.38
2023-04-18T13:10:55.821Z,11.41
2023-04-18T13:13:24.437Z,11.20
2023-04-18T13:15:53.146Z,11.32
2023-04-18T13:18:21.880Z,11.19
2023-04-18T13:20:52.704Z,11.30
2023-04-18T13:23:21.338Z,11.15
2023-04-18T13:25:49.922Z,11.17
2023-04-18T13:28:18.561Z,11.14
2023-04-18T13:30:47.196Z,11.10
2023-04-18T13:33:15.674Z,11.11
2023-04-18T13:35:44.335Z,11.31
2023-04-18T13:38:14.585Z,11.41
2023-04-18T13:40:43.210Z,11.23
2023-04-18T13:43:13.270Z,11.18
2023-04-18T13:45:42.058Z,11.32
2023-04-18T13:48:10.771Z,11.13
2023-04-18T13:50:39.534Z,11.23
2023-04-18T13:53:08.297Z,11.23
2023-04-18T13:55:38.342Z,11.24
2023-04-18T13:58:09.287Z,11.30
2023-04-18T14:00:38.676Z,11.27
2023-04-18T14:03:07.394Z,11.25
2023-04-18T14:05:36.147Z,11.14
2023-04-18T14:08:05.091Z,11.03
2023-04-18T14:10:33.712Z,11.08
2023-04-18T14:13:04.166Z,11.06
2023-04-18T14:15:33.373Z,11.13
2023-04-18T14:18:02.269Z,11.26
2023-04-18T14:20:34.763Z,11.23
2023-04-18T14:23:03.461Z,11.08
2023-04-18T14:25:32.117Z,11.26
2023-04-18T14:28:09.835Z,11.26
2023-04-18T14:30:39.269Z,11.20
2023-04-18T14:33:09.430Z,11.10
2023-04-18T14:35:38.411Z,10.98
2023-04-18T14:38:06.983Z,10.85
2023-04-18T14:40:36.168Z,10.76
2023-04-18T14:43:04.912Z,10.75
2023-04-18T14:45:35.799Z,10.67
2023-04-18T14:48:04.379Z,10.68
2023-04-18T14:50:33.282Z,10.66
2023-04-18T14:53:01.976Z,10.67
2023-04-18T14:55:30.649Z,10.59
2023-04-18T14:57:59.344Z,10.58
2023-04-18T15:00:28.408Z,10.59
2023-04-18T15:02:58.636Z,10.52
2023-04-18T15:05:28.118Z,10.52
2023-04-18T15:07:56.882Z,10.41
2023-04-18T15:10:25.707Z,10.33
2023-04-18T15:12:54.433Z,10.31
2023-04-18T15:15:23.182Z,10.28
2023-04-18T15:17:51.756Z,10.32
2023-04-18T15:20:23.881Z,10.33
2023-04-18T15:22:52.726Z,10.29
2023-04-18T15:25:21.293Z,10.25
2023-04-18T15:27:50.160Z,10.18
2023-04-18T15:30:21.721Z,10.12
2023-04-18T15:32:50.478Z,10.13
2023-04-18T15:35:19.177Z,10.15
2023-04-18T15:37:49.370Z,10.17
2023-04-18T15:40:18.543Z,10.21
2023-04-18T15:42:49.586Z,10.19
2023-04-18T15:45:18.075Z,10.11
2023-04-18T15:47:46.983Z,10.09
2023-04-18T15:50:16.555Z,10.00
2023-04-18T15:52:45.159Z,9.90
2023-04-18T15:55:15.429Z,9.88
2023-04-18T15:57:44.028Z,9.87
2023-04-18T16:00:16.270Z,9.81
2023-04-18T16:02:45.962Z,9.78
2023-04-18T16:05:15.525Z,9.75
2023-04-18T16:07:44.710Z,9.71
2023-04-18T16:10:15.481Z,9.66
2023-04-18T16:12:46.189Z,9.56
2023-04-18T16:15:15.133Z,9.49
2023-04-18T16:17:43.742Z,9.41
2023-04-18T16:20:12.993Z,9.33
2023-04-18T16:22:41.585Z,9.32
2023-04-18T16:25:11.158Z,9.29
2023-04-18T16:27:41.171Z,9.21
2023-04-18T16:30:11.363Z,9.13
2023-04-18T16:32:40.039Z,9.12
2023-04-18T16:35:13.197Z,9.10
2023-04-18T16:37:42.068Z,9.10
2023-04-18T16:40:11.176Z,9.04
2023-04-18T16:42:41.296Z,8.98
2023-04-18T16:45:10.225Z,8.97
2023-04-18T16:47:38.860Z,8.82
2023-04-18T16:50:08.818Z,8.78
2023-04-18T16:52:37.340Z,8.71
2023-04-18T16:55:06.978Z,8.59
2023-04-18T16:57:35.437Z,8.55
2023-04-18T17:00:07.102Z,8.51
2023-04-18T17:02:35.854Z,8.37
2023-04-18T17:05:04.748Z,8.37
2023-04-18T17:07:33.458Z,8.24
2023-04-18T17:10:01.905Z,8.19
2023-04-18T17:12:30.576Z,8.19
2023-04-18T17:14:59.146Z,8.10
2023-04-18T17:17:29.305Z,8.02
2023-04-18T17:19:58.844Z,8.01
2023-04-18T17:22:27.367Z,7.96
2023-04-18T17:24:55.950Z,7.82
2023-04-18T17:27:24.421Z,7.74
2023-04-18T17:29:53.063Z,7.74
2023-04-18T17:32:21.502Z,7.63
2023-04-18T17:34:51.582Z,7.52
2023-04-18T17:37:22.538Z,7.59
2023-04-18T17:39:50.910Z,7.57
2023-04-18T17:42:21.338Z,7.50
2023-04-18T17:44:49.891Z,7.46
2023-04-18T17:47:19.609Z,7.39
2023-04-18T17:49:48.094Z,7.34
2023-04-18T17:52:18.148Z,7.27
2023-04-18T17:54:46.584Z,7.36
2023-04-18T17:57:15.070Z,7.36
2023-04-18T17:59:43.511Z,7.34
2023-04-18T18:02:12.760Z,7.29
2023-04-18T18:04:41.729Z,7.20
2023-04-18T18:07:10.452Z,7.18
2023-04-18T18:09:41.629Z,7.24
2023-04-18T18:12:11.052Z,7.24
2023-04-18T18:14:40.753Z,7.35
2023-04-18T18:17:09.637Z,7.33
2023-04-18T18:19:38.276Z,7.27
2023-04-18T18:22:07.313Z,7.28
2023-04-18T18:24:35.918Z,7.32
2023-04-18T18:27:06.409Z,7.17
2023-04-18T18:29:34.952Z,7.12
2023-04-18T18:32:03.409Z,6.97
2023-04-18T18:34:32.411Z,6.86
2023-04-18T18:37:00.970Z,6.86
2023-04-18T18:39:29.352Z,6.81
2023-04-18T18:41:58.732Z,6.70
2023-04-18T18:44:28.865Z,6.59
2023-04-18T18:46:59.923Z,6.62
2023-04-18T18:49:28.700Z,6.55
2023-04-18T18:51:57.230Z,6.43
2023-04-18T18:54:26.057Z,6.42
2023-04-18T18:56:54.526Z,6.29
2023-04-18T18:59:23.101Z,6.28
2023-04-18T19:01:53.327Z,6.21
2023-04-18T19:04:22.520Z,6.20
2023-04-18T19:06:51.078Z,6.11
2023-04-18T19:09:19.645Z,6.10
2023-04-18T19:11:48.135Z,6.11
2023-04-18T19:14:16.693Z,6.17
2023-04-18T19:16:45.264Z,6.09
2023-04-18T19:19:17.548Z,6.05
2023-04-18T19:21:46.379Z,6.01
2023-04-18T19:24:15.001Z,6.08
2023-04-18T19:26:43.649Z,5.91
2023-04-18T19:29:14.593Z,5.80
2023-04-18T19:31:43.904Z,5.81
2023-04-18T19:34:13.599Z,5.71
2023-04-18T19:36:43.691Z,5.67
2023-04-18T19:39:12.415Z,5.57
2023-04-18T19:41:41.658Z,5.61
2023-04-18T19:44:10.140Z,5.68
2023-04-18T19:46:38.835Z,5.54
2023-04-18T19:49:07.656Z,5.53
2023-04-18T19:51:36.235Z,5.49
2023-04-18T19:54:06.516Z,5.46
2023-04-18T19:56:35.152Z,5.44
2023-04-18T19:59:06.112Z,5.39
2023-04-18T20:01:34.707Z,5.32
2023-04-18T20:04:03.523Z,5.35
2023-04-18T20:06:32.328Z,5.29
2023-04-18T20:09:00.776Z,5.39
2023-04-18T20:11:30.896Z,5.25
2023-04-18T20:13:59.474Z,5.23
2023-04-18T20:16:27.925Z,5.11
2023-04-18T20:18:56.893Z,5.15
2023-04-18T20:21:25.722Z,5.03
2023-04-18T20:23:54.216Z,5.05
2023-04-18T20:26:22.935Z,4.90
2023-04-18T20:28:52.840Z,4.90
2023-04-18T20:31:21.475Z,4.87
2023-04-18T20:33:49.961Z,4.83
2023-04-18T20:36:18.878Z,4.76
2023-04-18T20:38:47.463Z,4.72
2023-04-18T20:41:18.337Z,4.81
2023-04-18T20:43:47.052Z,4.73
2023-04-18T20:46:17.024Z,4.71
2023-04-18T20:48:45.565Z,4.81
2023-04-18T20:51:14.048Z,4.68
2023-04-18T20:53:42.539Z,4.64
2023-04-18T20:56:11.223Z,4.61
2023-04-18T20:58:39.707Z,4.52
2023-04-18T21:01:08.425Z,4.61
2023-04-18T21:03:38.497Z,4.51
2023-04-18T21:06:07.478Z,4.61
2023-04-18T21:08:38.034Z,4.61
2023-04-18T21:11:06.975Z,4.58
2023-04-18T21:13:36.183Z,4.46
2023-04-18T21:16:07.864Z,4.45
2023-04-18T21:18:38.020Z,4.35
2023-04-18T21:21:07.616Z,4.27
2023-04-18T21:23:43.264Z,4.25
2023-04-18T21:26:13.843Z,4.12
2023-04-18T21:28:56.329Z,4.10
2023-04-18T21:31:25.357Z,4.11
2023-04-18T21:33:56.360Z,4.12
2023-04-18T21:36:26.694Z,4.02
2023-04-18T21:38:55.831Z,3.99
2023-04-18T21:41:24.902Z,3.94
2023-04-18T21:43:53.843Z,3.90
2023-04-18T21:46:22.510Z,3.90
2023-04-18T21:48:51.333Z,3.90
2023-04-18T21:51:21.282Z,3.86
2023-04-18T21:53:49.929Z,3.85
2023-04-18T21:56:18.487Z,3.79
2023-04-18T21:58:47.783Z,3.98
2023-04-18T22:01:16.490Z,3.91
2023-04-18T22:03:45.220Z,3.91
2023-04-18T22:06:13.894Z,3.96
2023-04-18T22:08:43.916Z,4.02
2023-04-18T22:11:13.757Z,4.17
2023-04-18T22:13:45.003Z,4.02
2023-04-18T22:16:13.878Z,3.99
2023-04-18T22:18:42.399Z,4.09
2023-04-18T22:21:11.579Z,3.98
2023-04-18T22:23:40.141Z,3.98
2023-04-18T22:26:10.104Z,4.04
2023-04-18T22:28:38.596Z,4.05
2023-04-18T22:31:07.149Z,4.13
2023-04-18T22:33:35.949Z,4.09
2023-04-18T22:36:04.614Z,4.04
2023-04-18T22:38:33.116Z,4.15
2023-04-18T22:41:01.684Z,4.09
2023-04-18T22:43:31.648Z,4.15
2023-04-18T22:46:00.246Z,4.06
2023-04-18T22:48:28.846Z,4.17
2023-04-18T22:50:57.301Z,4.09
2023-04-18T22:53:25.818Z,4.09
2023-04-18T22:55:54.674Z,4.10
2023-04-18T22:58:23.103Z,4.24
2023-04-18T23:00:53.332Z,4.12
2023-04-18T23:03:22.062Z,4.16
2023-04-18T23:05:50.887Z,4.13
2023-04-18T23:08:20.856Z,4.11
2023-04-18T23:10:49.266Z,4.28
2023-04-18T23:13:17.805Z,4.23
2023-04-18T23:15:46.276Z,4.12
2023-04-18T23:18:16.661Z,4.13
2023-04-18T23:20:45.181Z,4.09
2023-04-18T23:23:13.885Z,4.15
2023-04-18T23:25:42.374Z,4.06
2023-04-18T23:28:10.870Z,4.04
2023-04-18T23:30:39.283Z,3.96
2023-04-18T23:33:08.741Z,4.03
2023-04-18T23:35:38.664Z,3.86
2023-04-18T23:38:07.282Z,3.76
2023-04-18T23:40:35.871Z,3.69
2023-04-18T23:43:04.495Z,3.67
2023-04-18T23:45:32.920Z,3.63
2023-04-18T23:48:01.568Z,3.62
2023-04-18T23:50:30.031Z,3.57
2023-04-18T23:53:00.160Z,3.50
2023-04-18T23:55:28.691Z,3.43
2023-04-18T23:57:57.186Z,3.40
